Time;durP1;ratioP1;P1;durP2;ratioP2;P2;SDS_P1;SDS_P2;PMS_P1;PMS_P2;Temp;Humidity;BMP_temperature;BMP_pressure;BME280_temperature;BME280_humidity;BME280_pressure;Samples;Min_cycle;Max_cycle;Signal;HPM_P1;HPM_P2
2023/01/18 00:01:13;;;;;;;18.13;12.30;;;25.20;99.90;;;;;;4986987;28;20086;-67
2023/01/18 00:03:41;;;;;;;19.00;12.18;;;25.20;99.90;;;;;;4989813;28;20026;-67
2023/01/18 00:06:09;;;;;;;20.17;14.60;;;25.30;99.90;;;;;;4988094;28;20495;-66
2023/01/18 00:08:37;;;;;;;19.75;13.52;;;25.40;99.90;;;;;;5004607;28;20034;-64
2023/01/18 00:11:12;;;;;;;24.80;14.13;;;25.40;99.90;;;;;;5005921;28;20029;-67
2023/01/18 00:13:39;;;;;;;26.35;12.75;;;25.40;99.90;;;;;;5006374;28;20030;-66
2023/01/18 00:16:12;;;;;;;18.13;12.20;;;25.50;99.90;;;;;;5005203;28;20023;-67
2023/01/18 00:18:38;;;;;;;18.67;12.40;;;25.50;99.90;;;;;;5004505;28;20426;-69
2023/01/18 00:21:07;;;;;;;18.65;13.13;;;25.50;99.90;;;;;;5005854;28;20017;-69
2023/01/18 00:23:34;;;;;;;35.90;21.02;;;25.50;99.90;;;;;;5006257;28;20014;-70
2023/01/18 00:26:02;;;;;;;61.70;44.45;;;25.50;99.90;;;;;;5004449;28;20387;-70
2023/01/18 00:28:29;;;;;;;55.33;36.90;;;25.50;99.90;;;;;;5005074;28;20026;-69
2023/01/18 00:30:56;;;;;;;36.17;20.05;;;25.50;99.90;;;;;;5006082;28;20119;-70
2023/01/18 00:33:22;;;;;;;31.08;22.17;;;25.50;99.90;;;;;;5004566;28;20018;-70
2023/01/18 00:35:56;;;;;;;34.47;26.70;;;25.50;99.90;;;;;;5004776;28;20025;-70
2023/01/18 00:38:22;;;;;;;19.55;14.20;;;25.50;99.90;;;;;;5006743;28;20467;-69
2023/01/18 00:40:49;;;;;;;67.40;48.95;;;25.50;99.90;;;;;;5004467;28;20097;-69
2023/01/18 00:46:02;;;;;;;33.10;24.27;;;25.50;99.90;;;;;;5008499;28;20475;-70
2023/01/18 00:48:29;;;;;;;25.17;18.48;;;25.60;99.90;;;;;;5005123;28;20037;-70
2023/01/18 00:50:55;;;;;;;24.98;17.25;;;25.70;99.90;;;;;;5003595;28;20034;-70
2023/01/18 00:53:22;;;;;;;22.83;17.45;;;25.60;99.90;;;;;;5005709;28;20076;-70
2023/01/18 00:55:48;;;;;;;29.55;15.70;;;25.70;99.90;;;;;;5004643;28;20375;-70
2023/01/18 00:58:15;;;;;;;29.20;15.75;;;25.70;99.90;;;;;;5003462;28;20018;-69
2023/01/18 01:00:41;;;;;;;23.27;19.13;;;25.70;99.90;;;;;;5010236;28;20026;-69
2023/01/18 01:03:08;;;;;;;21.83;18.00;;;25.70;99.90;;;;;;5004812;28;20050;-70
2023/01/18 01:08:24;;;;;;;27.70;17.67;;;25.80;99.90;;;;;;5001268;28;20045;-70
2023/01/18 01:11:03;;;;;;;29.05;20.33;;;25.80;99.90;;;;;;5004636;28;20022;-69
2023/01/18 01:27:22;;;;;;;65.65;48.80;;;25.80;99.90;;;;;;4814354;29;20095;-70
2023/01/18 01:29:50;;;;;;;34.15;23.85;;;25.90;99.90;;;;;;4875339;29;20135;-69
2023/01/18 01:32:17;;;;;;;31.67;22.73;;;25.90;99.90;;;;;;4930157;28;20487;-69
2023/01/18 01:34:43;;;;;;;35.20;25.63;;;25.90;99.90;;;;;;5003417;28;20129;-70
2023/01/18 01:37:10;;;;;;;35.35;26.80;;;25.90;99.90;;;;;;5003776;28;20028;-71
2023/01/18 01:39:36;;;;;;;39.72;26.90;;;26.00;99.90;;;;;;5005106;28;20058;-71
2023/01/18 01:42:03;;;;;;;44.50;28.25;;;26.00;99.90;;;;;;5003904;28;20015;-71
2023/01/18 01:44:33;;;;;;;40.35;28.40;;;26.00;99.90;;;;;;5004310;28;20356;-71
2023/01/18 01:47:07;;;;;;;32.17;25.15;;;26.10;99.90;;;;;;5005340;28;20046;-71
2023/01/18 01:49:39;;;;;;;31.83;23.58;;;26.00;99.90;;;;;;5005036;28;20098;-71
2023/01/18 01:52:12;;;;;;;29.75;23.20;;;26.10;99.90;;;;;;5003633;28;20387;-70
2023/01/18 01:54:43;;;;;;;36.25;28.40;;;26.10;99.90;;;;;;5002825;28;20080;-68
2023/01/18 01:57:16;;;;;;;48.90;37.43;;;26.10;99.90;;;;;;5003755;28;20463;-73
2023/01/18 02:00:05;;;;;;;103.70;82.22;;;26.10;99.90;;;;;;5007448;28;20486;-72
2023/01/18 02:02:34;;;;;;;140.25;117.72;;;26.20;99.90;;;;;;5004218;28;20038;-73
2023/01/18 02:05:04;;;;;;;97.80;86.93;;;26.20;99.90;;;;;;5004674;28;20484;-72
2023/01/18 02:07:32;;;;;;;54.08;46.90;;;26.20;99.90;;;;;;4996330;28;20069;-73
2023/01/18 02:10:00;;;;;;;46.38;32.72;;;26.30;99.90;;;;;;4993798;28;20018;-71
2023/01/18 02:12:28;;;;;;;42.65;38.00;;;26.40;99.90;;;;;;4993850;28;20468;-74
2023/01/18 02:14:57;;;;;;;47.80;39.33;;;26.30;99.90;;;;;;4993788;28;20030;-74
2023/01/18 02:17:42;;;;;;;40.65;33.17;;;26.40;99.90;;;;;;4993247;28;20061;-71
2023/01/18 02:20:30;;;;;;;23.40;20.52;;;26.40;99.90;;;;;;4993683;28;20399;-73
2023/01/18 02:23:07;;;;;;;21.90;17.42;;;26.50;99.90;;;;;;4992919;28;20026;-73
2023/01/18 02:25:42;;;;;;;23.25;17.75;;;26.50;99.90;;;;;;4993439;28;20034;-71
2023/01/18 02:28:10;;;;;;;20.63;16.48;;;26.60;99.90;;;;;;4993574;28;20097;-71
2023/01/18 02:30:48;;;;;;;25.55;18.17;;;26.60;99.90;;;;;;4993767;28;20026;-74
2023/01/18 02:33:16;;;;;;;19.77;15.45;;;26.70;99.90;;;;;;4993799;28;20030;-69
2023/01/18 02:35:55;;;;;;;23.15;17.23;;;26.70;99.90;;;;;;4990968;28;20073;-68
2023/01/18 02:38:34;;;;;;;27.98;16.13;;;26.70;99.90;;;;;;4993260;28;20388;-66
2023/01/18 02:41:21;;;;;;;18.17;14.85;;;26.70;99.90;;;;;;4993500;28;20022;-69
2023/01/18 02:46:32;;;;;;;24.13;14.93;;;26.70;99.90;;;;;;4993204;28;20356;-69
2023/01/18 02:49:07;;;;;;;17.33;13.83;;;26.70;99.90;;;;;;4993381;28;20054;-69
2023/01/18 02:51:34;;;;;;;17.90;12.70;;;26.70;99.90;;;;;;4993333;28;20014;-69
2023/01/18 02:54:03;;;;;;;18.38;13.80;;;26.80;99.90;;;;;;4993005;28;20030;-69
2023/01/18 02:56:51;;;;;;;18.90;12.48;;;26.80;99.90;;;;;;4991544;28;20022;-68
2023/01/18 02:59:33;;;;;;;15.77;13.43;;;26.80;99.90;;;;;;4982135;28;20038;-69
2023/01/18 03:02:17;;;;;;;33.55;29.08;;;26.90;99.90;;;;;;4993083;28;20510;-69
2023/01/18 03:04:57;;;;;;;23.95;14.40;;;27.00;99.90;;;;;;4992112;28;20030;-67
2023/01/18 03:07:26;;;;;;;20.75;13.77;;;27.00;99.90;;;;;;4992202;28;20553;-68
2023/01/18 03:09:54;;;;;;;18.15;12.60;;;27.10;99.90;;;;;;4993327;28;20478;-67
2023/01/18 03:12:45;;;;;;;16.98;11.65;;;27.30;99.90;;;;;;4993069;28;20034;-67
2023/01/18 03:15:18;;;;;;;22.08;11.90;;;27.40;99.90;;;;;;4992924;28;20022;-67
2023/01/18 03:17:52;;;;;;;16.27;11.15;;;27.50;99.90;;;;;;4992730;28;20031;-67
2023/01/18 03:20:26;;;;;;;19.95;10.95;;;27.50;99.90;;;;;;4991885;28;20075;-66
2023/01/18 03:25:53;;;;;;;19.95;11.43;;;27.60;99.90;;;;;;4990926;28;20549;-67
2023/01/18 03:35:06;;;;;;;71.97;42.85;;;27.70;99.90;;;;;;4897535;29;20036;-66
2023/01/18 03:37:39;;;;;;;38.78;24.85;;;27.70;99.90;;;;;;4995476;28;20045;-68
2023/01/18 03:40:09;;;;;;;;;;;27.80;99.90;;;;;;4997255;28;20394;-68
2023/01/18 03:42:47;;;;;;;28.30;14.90;;;27.80;99.90;;;;;;4996454;28;20366;-67
2023/01/18 03:45:19;;;;;;;35.10;22.77;;;27.80;99.90;;;;;;4995992;28;20080;-68
2023/01/18 03:47:49;;;;;;;19.48;11.23;;;27.80;99.90;;;;;;4996080;28;20022;-68
2023/01/18 03:50:16;;;;;;;16.38;11.38;;;27.90;99.90;;;;;;4996262;28;20041;-67
2023/01/18 03:52:47;;;;;;;14.38;10.60;;;27.90;99.90;;;;;;4996254;28;20491;-67
2023/01/18 03:55:17;;;;;;;11.70;9.90;;;28.00;99.90;;;;;;4996103;28;20034;-67
2023/01/18 03:58:05;;;;;;;12.75;10.18;;;27.90;99.90;;;;;;4995951;28;20376;-66
2023/01/18 04:00:32;;;;;;;15.70;10.88;;;27.90;99.90;;;;;;4994175;28;20023;-67
2023/01/18 04:02:58;;;;;;;15.40;10.65;;;27.90;99.90;;;;;;4991667;28;20391;-68
2023/01/18 04:05:25;;;;;;;16.70;12.90;;;27.90;99.90;;;;;;4991338;28;20026;-68
2023/01/18 04:07:51;;;;;;;15.43;11.13;;;28.00;99.90;;;;;;4999187;28;20042;-67
2023/01/18 04:10:19;;;;;;;14.77;12.07;;;28.00;99.90;;;;;;4999795;28;20467;-68
2023/01/18 04:12:45;;;;;;;18.05;13.75;;;28.10;99.90;;;;;;4999824;28;20042;-68
2023/01/18 04:15:12;;;;;;;16.92;12.63;;;28.10;99.90;;;;;;5000909;28;20490;-67
2023/01/18 04:17:38;;;;;;;16.42;13.30;;;28.20;99.90;;;;;;4999174;28;20029;-68
2023/01/18 04:20:06;;;;;;;20.15;11.85;;;28.30;99.90;;;;;;4999184;28;20073;-68
2023/01/18 04:22:33;;;;;;;20.20;12.27;;;28.30;99.90;;;;;;4999881;28;20033;-67
2023/01/18 04:24:59;;;;;;;14.32;12.15;;;28.40;99.90;;;;;;5001515;28;20026;-68
2023/01/18 04:27:26;;;;;;;17.35;11.95;;;28.50;99.90;;;;;;5001596;28;20119;-68
2023/01/18 04:29:52;;;;;;;17.10;12.30;;;28.50;99.90;;;;;;5004051;28;20341;-67
2023/01/18 04:32:19;;;;;;;16.83;12.43;;;28.50;99.90;;;;;;5007811;28;20383;-68
2023/01/18 04:34:45;;;;;;;17.70;12.40;;;28.50;99.90;;;;;;4999031;28;20018;-68
2023/01/18 04:37:12;;;;;;;17.05;12.48;;;28.60;99.90;;;;;;5005430;28;20028;-66
2023/01/18 04:39:38;;;;;;;16.67;12.48;;;28.60;99.90;;;;;;5000308;28;20423;-66
2023/01/18 04:42:05;;;;;;;17.55;11.43;;;28.60;99.90;;;;;;4999781;28;20023;-66
2023/01/18 04:44:31;;;;;;;17.90;12.43;;;28.60;99.90;;;;;;5002096;28;20471;-66
2023/01/18 04:46:58;;;;;;;17.00;11.63;;;28.70;99.90;;;;;;5003203;28;20018;-68
2023/01/18 04:49:26;;;;;;;19.50;13.15;;;28.70;99.90;;;;;;5001010;28;20490;-68
2023/01/18 04:51:53;;;;;;;18.55;13.85;;;28.70;99.90;;;;;;5004106;28;20041;-66
2023/01/18 04:54:19;;;;;;;14.50;11.63;;;28.70;99.90;;;;;;5023148;23;20018;-66
2023/01/18 04:56:45;;;;;;;16.90;12.30;;;28.70;99.90;;;;;;5065770;28;20037;-67
2023/01/18 04:59:15;;;;;;;17.83;13.00;;;28.70;99.90;;;;;;5075526;28;20103;-66
2023/01/18 05:01:42;;;;;;;17.00;13.07;;;28.70;99.90;;;;;;5076484;28;20032;-66
2023/01/18 05:04:08;;;;;;;19.10;13.77;;;28.80;99.90;;;;;;5076178;28;20021;-65
2023/01/18 05:06:35;;;;;;;16.80;13.18;;;28.80;99.90;;;;;;5076071;28;20044;-66
2023/01/18 05:09:01;;;;;;;16.73;13.60;;;28.80;99.90;;;;;;5074773;28;20074;-67
2023/01/18 05:11:28;;;;;;;17.25;12.40;;;28.90;99.90;;;;;;5075071;28;20103;-68
2023/01/18 05:13:55;;;;;;;17.65;13.50;;;28.90;99.90;;;;;;5075704;28;20028;-67
2023/01/18 05:16:23;;;;;;;15.07;12.20;;;29.00;99.90;;;;;;5075873;28;20028;-66
2023/01/18 05:18:49;;;;;;;13.82;11.77;;;29.00;99.90;;;;;;5075819;28;20024;-67
2023/01/18 05:21:16;;;;;;;17.35;12.30;;;29.00;99.90;;;;;;5067528;28;20036;-66
2023/01/18 05:23:43;;;;;;;17.25;12.98;;;29.00;99.90;;;;;;5055705;28;20490;-66
2023/01/18 05:26:19;;;;;;;13.43;11.02;;;29.00;99.90;;;;;;5056869;28;20021;-66
2023/01/18 05:28:47;;;;;;;13.30;10.80;;;29.00;99.90;;;;;;5056763;28;20060;-67
2023/01/18 05:31:16;;;;;;;12.50;10.40;;;29.10;99.90;;;;;;5057111;28;20033;-67
2023/01/18 05:33:43;;;;;;;12.45;10.82;;;29.00;99.90;;;;;;5056801;28;20029;-67
2023/01/18 05:36:10;;;;;;;15.43;10.85;;;29.00;99.90;;;;;;5067871;28;20020;-67
2023/01/18 05:38:36;;;;;;;11.68;10.48;;;29.10;99.90;;;;;;5056727;28;20500;-67
2023/01/18 05:41:03;;;;;;;14.65;10.63;;;29.10;99.90;;;;;;5056546;28;20104;-67
2023/01/18 05:43:31;;;;;;;15.45;11.57;;;29.10;99.90;;;;;;5056722;28;20025;-68
2023/01/18 05:45:58;;;;;;;14.30;11.95;;;29.10;99.90;;;;;;5056992;28;20028;-67
2023/01/18 05:48:26;;;;;;;16.70;11.55;;;29.20;99.90;;;;;;5056455;28;20029;-67
2023/01/18 05:50:52;;;;;;;14.93;11.73;;;29.20;99.90;;;;;;5054930;28;20442;-67
2023/01/18 05:53:21;;;;;;;13.40;11.02;;;29.20;99.90;;;;;;5053273;28;20087;-67
2023/01/18 05:55:59;;;;;;;13.00;10.90;;;29.30;99.90;;;;;;5054200;28;20069;-67
2023/01/18 05:58:27;;;;;;;16.73;10.85;;;29.40;99.90;;;;;;5067830;28;20107;-68
2023/01/18 06:00:54;;;;;;;13.57;10.50;;;29.40;99.90;;;;;;5074083;28;20377;-68
2023/01/18 06:03:21;;;;;;;15.23;11.75;;;29.40;99.90;;;;;;5074031;28;20438;-67
2023/01/18 06:05:50;;;;;;;14.32;10.23;;;29.50;99.90;;;;;;5067825;28;20024;-67
2023/01/18 06:08:17;;;;;;;11.68;10.35;;;29.50;99.90;;;;;;5062593;28;20040;-68
2023/01/18 06:10:51;;;;;;;19.30;11.32;;;29.40;99.90;;;;;;5062379;28;20024;-68
2023/01/18 06:13:17;;;;;;;16.90;10.95;;;29.50;99.90;;;;;;5062609;28;20025;-68
2023/01/18 06:15:45;;;;;;;20.02;10.30;;;29.50;99.90;;;;;;5062711;28;20079;-68
2023/01/18 06:18:12;;;;;;;13.05;9.88;;;29.50;99.90;;;;;;5063899;28;20023;-68
2023/01/18 06:20:39;;;;;;;12.48;10.10;;;29.50;99.90;;;;;;5062782;28;20018;-68
2023/01/18 06:23:05;;;;;;;12.00;9.57;;;29.50;99.90;;;;;;5062287;28;20027;-67
2023/01/18 06:25:32;;;;;;;12.60;9.27;;;29.50;99.90;;;;;;5067431;28;20024;-66
2023/01/18 06:27:58;;;;;;;11.32;9.27;;;29.60;99.90;;;;;;5068615;28;20078;-69
2023/01/18 06:30:25;;;;;;;19.05;11.30;;;29.60;99.90;;;;;;5063819;28;20020;-69
2023/01/18 06:32:52;;;;;;;15.82;11.23;;;29.70;99.90;;;;;;5057103;28;20401;-69
2023/01/18 06:35:19;;;;;;;15.05;11.00;;;29.70;99.90;;;;;;5053438;28;20043;-69
2023/01/18 06:37:46;;;;;;;16.60;10.68;;;29.80;99.90;;;;;;5058719;28;20048;-69
2023/01/18 06:40:13;;;;;;;17.02;11.23;;;29.80;99.90;;;;;;5063162;28;20489;-68
2023/01/18 06:42:40;;;;;;;14.73;10.80;;;29.90;99.90;;;;;;5061689;28;20036;-71
2023/01/18 06:45:07;;;;;;;15.95;11.50;;;30.00;99.90;;;;;;5062956;28;20051;-70
2023/01/18 06:47:34;;;;;;;15.35;10.38;;;30.00;99.90;;;;;;5063307;28;20112;-70
2023/01/18 06:50:00;;;;;;;13.50;10.70;;;30.00;99.90;;;;;;5061572;28;20091;-70
2023/01/18 06:52:27;;;;;;;13.85;10.27;;;30.00;99.90;;;;;;5064825;28;20029;-74
2023/01/18 06:54:53;;;;;;;17.52;13.15;;;30.10;99.90;;;;;;5061428;28;20119;-71
2023/01/18 06:57:20;;;;;;;16.38;11.00;;;30.10;99.90;;;;;;5063447;28;20492;-72
2023/01/18 06:59:46;;;;;;;20.60;13.65;;;30.10;99.90;;;;;;5063307;28;20427;-71
2023/01/18 07:02:15;;;;;;;22.08;12.13;;;30.10;99.90;;;;;;5044814;28;20379;-71
2023/01/18 07:04:44;;;;;;;16.75;12.60;;;30.10;99.90;;;;;;5061234;28;20021;-70
2023/01/18 07:07:11;;;;;;;12.32;10.55;;;30.10;99.90;;;;;;5062069;28;20035;-72
2023/01/18 07:09:38;;;;;;;21.38;11.60;;;30.00;99.90;;;;;;5063213;28;20021;-71
2023/01/18 07:12:04;;;;;;;15.27;11.82;;;30.10;99.90;;;;;;5060446;28;20151;-71
2023/01/18 07:14:31;;;;;;;21.77;12.45;;;30.10;99.90;;;;;;5064051;28;20021;-71
2023/01/18 07:16:58;;;;;;;19.60;13.35;;;30.10;99.90;;;;;;5064368;28;20017;-72
2023/01/18 07:19:24;;;;;;;30.80;20.48;;;30.10;99.90;;;;;;5059636;28;20017;-72
2023/01/18 07:21:52;;;;;;;18.42;12.43;;;30.20;99.90;;;;;;5053468;28;20024;-68
2023/01/18 07:24:19;;;;;;;19.40;11.23;;;30.20;99.90;;;;;;5064940;28;20183;-67
2023/01/18 07:26:46;;;;;;;20.33;11.98;;;30.10;99.90;;;;;;5054130;28;20047;-67
2023/01/18 07:29:12;;;;;;;19.23;11.82;;;30.10;99.90;;;;;;5055114;28;20017;-68
2023/01/18 07:31:39;;;;;;;15.32;11.10;;;30.10;99.90;;;;;;5060694;28;20074;-69
2023/01/18 07:34:06;;;;;;;16.63;11.70;;;30.10;99.90;;;;;;5062666;28;20465;-68
2023/01/18 07:36:32;;;;;;;14.05;11.52;;;30.20;99.90;;;;;;5062061;28;20013;-69
2023/01/18 07:39:01;;;;;;;15.00;11.20;;;30.20;99.90;;;;;;5060826;28;20048;-70
2023/01/18 07:41:28;;;;;;;16.52;10.93;;;30.20;99.90;;;;;;5062163;28;20028;-68
2023/01/18 07:43:55;;;;;;;15.00;10.90;;;30.20;99.90;;;;;;5062477;28;20036;-68
2023/01/18 07:46:24;;;;;;;17.98;11.82;;;30.20;99.90;;;;;;5061446;28;20465;-68
2023/01/18 07:48:52;;;;;;;12.82;10.40;;;30.20;99.90;;;;;;5060725;28;20110;-68
2023/01/18 07:51:21;;;;;;;12.70;10.30;;;30.20;99.90;;;;;;5062311;28;20031;-69
2023/01/18 07:53:51;;;;;;;14.95;10.65;;;30.20;99.90;;;;;;5061236;28;20036;-68
2023/01/18 07:56:18;;;;;;;17.10;11.45;;;30.20;99.90;;;;;;5060311;28;20082;-69
2023/01/18 07:58:45;;;;;;;17.08;11.60;;;30.20;99.90;;;;;;5061432;28;20473;-70
2023/01/18 08:01:15;;;;;;;16.50;10.82;;;30.20;99.90;;;;;;5061819;28;20095;-70
2023/01/18 08:03:42;;;;;;;18.25;11.15;;;30.20;99.90;;;;;;5061052;28;20028;-68
2023/01/18 08:06:12;;;;;;;14.77;11.65;;;30.20;99.90;;;;;;5060973;28;20025;-69
2023/01/18 08:08:39;;;;;;;21.02;12.57;;;30.20;99.90;;;;;;5060427;28;20354;-69
2023/01/18 08:11:06;;;;;;;20.13;12.75;;;30.20;99.90;;;;;;5062359;28;20078;-69
2023/01/18 08:13:33;;;;;;;26.98;18.85;;;30.20;99.90;;;;;;5061077;28;20029;-69
2023/01/18 08:16:02;;;;;;;26.20;14.23;;;30.20;99.90;;;;;;5061932;28;20051;-69
2023/01/18 08:18:29;;;;;;;18.17;14.43;;;30.20;99.90;;;;;;5064541;28;20048;-69
2023/01/18 08:20:55;;;;;;;23.40;15.65;;;30.10;99.90;;;;;;5069542;28;20067;-69
2023/01/18 08:23:22;;;;;;;21.08;16.00;;;30.10;99.90;;;;;;5064927;28;20017;-71
2023/01/18 08:25:49;;;;;;;18.35;14.05;;;30.10;99.90;;;;;;5056636;28;20039;-70
2023/01/18 08:28:16;;;;;;;17.85;13.95;;;30.10;99.90;;;;;;5056503;28;20032;-71
2023/01/18 08:30:46;;;;;;;18.77;14.77;;;30.20;99.90;;;;;;5055356;28;20029;-69
2023/01/18 08:33:13;;;;;;;27.08;17.45;;;30.20;99.90;;;;;;5055729;28;20029;-69
2023/01/18 08:35:45;;;;;;;22.00;15.25;;;30.20;99.90;;;;;;5055723;28;20052;-70
2023/01/18 08:38:12;;;;;;;;;;;30.20;99.90;;;;;;5038789;28;20057;-70
2023/01/18 08:40:40;;;;;;;18.92;13.52;;;30.10;99.90;;;;;;5071067;28;19947;-69
2023/01/18 08:43:07;;;;;;;20.88;15.57;;;30.10;99.90;;;;;;5072935;28;20029;-70
2023/01/18 08:45:34;;;;;;;18.05;13.75;;;30.00;99.90;;;;;;5063763;28;20051;-70
2023/01/18 08:48:05;;;;;;;30.23;16.65;;;30.00;99.90;;;;;;5074790;28;20021;-70
2023/01/18 08:50:33;;;;;;;21.73;15.07;;;30.00;99.90;;;;;;5075643;28;20028;-70
2023/01/18 08:53:01;;;;;;;22.90;14.98;;;30.00;99.90;;;;;;5067085;28;20432;-71
2023/01/18 08:55:28;;;;;;;31.70;18.02;;;30.00;99.90;;;;;;5055316;28;20039;-74
2023/01/18 08:57:56;;;;;;;26.00;16.33;;;29.90;99.90;;;;;;5055125;28;20116;-69
2023/01/18 09:00:27;;;;;;;23.02;15.25;;;29.90;99.90;;;;;;5064878;28;20021;-71
2023/01/18 09:02:54;;;;;;;20.52;14.50;;;30.00;99.90;;;;;;5065178;28;20056;-71
2023/01/18 09:05:21;;;;;;;27.55;15.80;;;29.90;99.90;;;;;;5057714;28;20071;-70
2023/01/18 09:07:49;;;;;;;22.50;16.65;;;29.90;99.90;;;;;;5055179;28;20025;-71
2023/01/18 09:10:16;;;;;;;74.50;49.47;;;29.90;99.90;;;;;;5060877;28;20021;-73
2023/01/18 09:12:42;;;;;;;30.75;24.02;;;29.80;99.90;;;;;;5064465;28;20393;-72
2023/01/18 09:15:09;;;;;;;17.30;13.82;;;29.80;99.90;;;;;;5059662;28;20020;-72
2023/01/18 09:17:36;;;;;;;14.77;11.27;;;29.70;99.90;;;;;;5059603;28;20556;-71
2023/01/18 09:20:06;;;;;;;21.58;12.30;;;29.70;99.90;;;;;;5060185;28;20074;-69
2023/01/18 09:22:33;;;;;;;18.73;14.02;;;29.60;99.90;;;;;;5066887;28;20024;-72
2023/01/18 09:24:59;;;;;;;18.98;14.13;;;29.60;99.90;;;;;;5061254;28;20031;-71
2023/01/18 09:27:26;;;;;;;17.58;13.10;;;29.60;99.90;;;;;;5067843;28;20388;-69
2023/01/18 09:29:52;;;;;;;19.80;12.85;;;29.60;99.90;;;;;;5065953;28;20332;-71
2023/01/18 09:32:20;;;;;;;18.13;12.63;;;29.60;99.90;;;;;;5059138;28;20021;-71
2023/01/18 09:34:53;;;;;;;16.92;12.75;;;29.60;99.90;;;;;;5059203;28;20031;-70
2023/01/18 09:37:20;;;;;;;25.75;12.98;;;29.70;99.90;;;;;;5059123;28;20028;-71
2023/01/18 09:39:47;;;;;;;17.13;13.02;;;29.70;99.90;;;;;;5058872;28;20112;-72
2023/01/18 09:42:20;;;;;;;56.95;40.53;;;29.70;99.90;;;;;;5065872;28;20481;-70
2023/01/18 09:44:51;;;;;;;33.85;25.05;;;29.70;99.90;;;;;;5056173;28;20028;-73
2023/01/18 09:47:23;;;;;;;55.92;40.97;;;29.70;99.90;;;;;;5062514;28;20024;-71
2023/01/18 09:50:04;;;;;;;26.95;17.38;;;29.70;99.90;;;;;;5060583;28;20020;-71
2023/01/18 09:52:32;;;;;;;20.08;14.52;;;29.70;99.90;;;;;;5060433;28;20040;-70
2023/01/18 09:55:08;;;;;;;25.35;16.77;;;29.70;99.90;;;;;;5068603;28;20032;-70
2023/01/18 09:57:59;;;;;;;26.35;17.02;;;29.70;99.90;;;;;;5067128;28;20069;-73
2023/01/18 10:00:28;;;;;;;24.23;17.42;;;29.80;99.90;;;;;;5020623;28;20501;-73
2023/01/18 10:03:06;;;;;;;23.38;15.82;;;29.80;99.90;;;;;;5056299;28;20083;-71
2023/01/18 10:05:39;;;;;;;25.50;17.95;;;29.80;99.90;;;;;;5063539;28;20357;-71
2023/01/18 10:08:15;;;;;;;29.55;18.67;;;29.70;99.90;;;;;;5072228;28;20025;-70
2023/01/18 10:11:05;;;;;;;126.18;76.78;;;29.80;99.90;;;;;;5072245;28;20021;-69
2023/01/18 10:13:56;;;;;;;100.88;61.25;;;29.80;99.90;;;;;;5063483;28;20044;-70
2023/01/18 10:16:24;;;;;;;120.35;66.53;;;29.90;99.90;;;;;;5058759;28;20473;-70
2023/01/18 10:18:54;;;;;;;58.10;33.05;;;29.90;99.90;;;;;;5062917;28;20040;-68
2023/01/18 10:21:25;;;;;;;183.52;90.38;;;29.90;99.90;;;;;;5063940;28;20016;-69
2023/01/18 10:24:20;;;;;;;58.53;34.25;;;29.90;99.90;;;;;;5063487;28;20028;-71
2023/01/18 10:26:52;;;;;;;38.03;24.77;;;29.80;99.90;;;;;;5046754;28;20400;-71
2023/01/18 10:29:46;;;;;;;33.90;23.43;;;29.80;99.90;;;;;;5064331;28;20352;-71
2023/01/18 10:32:17;;;;;;;50.05;30.75;;;29.80;99.90;;;;;;5061862;28;20028;-70
2023/01/18 10:34:48;;;;;;;45.20;29.25;;;29.80;99.90;;;;;;5061958;28;20103;-70
2023/01/18 10:37:21;;;;;;;152.63;83.93;;;29.80;99.90;;;;;;5060942;28;20024;-70
2023/01/18 10:39:56;;;;;;;217.80;119.95;;;29.80;99.90;;;;;;5061583;28;20032;-71
2023/01/18 10:42:33;;;;;;;38.55;25.35;;;29.70;99.90;;;;;;5061680;28;20025;-70
2023/01/18 10:45:00;;;;;;;28.20;19.23;;;29.70;99.90;;;;;;5061845;28;20028;-70
2023/01/18 10:47:26;;;;;;;43.40;28.75;;;29.70;99.90;;;;;;5064493;28;20024;-71
2023/01/18 10:49:58;;;;;;;56.28;38.25;;;29.70;99.90;;;;;;5063292;28;20040;-71
2023/01/18 10:52:27;;;;;;;81.97;54.95;;;29.70;99.90;;;;;;5062421;28;20029;-71
2023/01/18 10:55:00;;;;;;;70.90;49.15;;;29.70;99.90;;;;;;5062236;28;20031;-70
2023/01/18 10:57:33;;;;;;;65.93;44.53;;;29.60;99.90;;;;;;5062071;28;20408;-72
2023/01/18 11:00:00;;;;;;;56.10;34.08;;;29.60;99.90;;;;;;5061581;28;20025;-72
2023/01/18 11:02:36;;;;;;;40.65;26.40;;;29.60;99.90;;;;;;5060926;28;20143;-69
2023/01/18 11:05:21;;;;;;;42.28;27.65;;;29.50;99.90;;;;;;5063959;28;20027;-69
2023/01/18 11:08:07;;;;;;;44.20;30.50;;;29.50;99.90;;;;;;5064066;28;20088;-69
2023/01/18 11:10:36;;;;;;;50.17;32.55;;;29.50;99.90;;;;;;5062974;28;20485;-69
2023/01/18 11:13:21;;;;;;;56.10;37.38;;;29.50;99.90;;;;;;5061486;28;20051;-70
2023/01/18 11:15:51;;;;;;;47.15;29.60;;;29.40;99.90;;;;;;5062343;28;20083;-71
2023/01/18 11:18:17;;;;;;;50.80;32.53;;;29.40;99.90;;;;;;5062087;28;20039;-69
2023/01/18 11:20:48;;;;;;;80.30;51.53;;;29.40;99.90;;;;;;5064003;28;20017;-70
2023/01/18 11:23:16;;;;;;;93.63;66.57;;;29.40;99.90;;;;;;5063005;28;20025;-69
2023/01/18 11:25:57;;;;;;;48.67;33.55;;;29.30;99.90;;;;;;5061438;28;20024;-70
2023/01/18 11:28:28;;;;;;;48.65;31.80;;;29.30;99.90;;;;;;5061510;28;20382;-71
2023/01/18 11:30:59;;;;;;;54.73;33.10;;;29.30;99.90;;;;;;5061807;28;20028;-70
2023/01/18 11:33:28;;;;;;;64.00;39.60;;;29.30;99.90;;;;;;5059351;28;20360;-71
2023/01/18 11:35:58;;;;;;;131.40;79.95;;;29.30;99.90;;;;;;5059717;28;20016;-70
2023/01/18 11:38:29;;;;;;;99.65;56.80;;;29.30;99.90;;;;;;5059448;28;20055;-72
2023/01/18 11:41:13;;;;;;;74.07;43.72;;;29.20;99.90;;;;;;5059977;28;20017;-70
2023/01/18 11:43:47;;;;;;;63.25;38.05;;;29.20;99.90;;;;;;5064166;28;20029;-70
2023/01/18 11:46:30;;;;;;;71.80;45.22;;;29.30;99.90;;;;;;5063966;28;20020;-68
2023/01/18 11:49:23;;;;;;;82.32;54.33;;;29.30;99.90;;;;;;5064142;28;20025;-70
2023/01/18 11:52:00;;;;;;;85.85;50.78;;;29.20;99.90;;;;;;5022748;28;20029;-70
2023/01/18 11:54:41;;;;;;;71.75;44.25;;;29.20;99.90;;;;;;5063101;28;20053;-70
2023/01/18 11:57:11;;;;;;;82.75;44.53;;;29.10;99.90;;;;;;5064593;28;20097;-71
2023/01/18 11:59:51;;;;;;;91.05;55.92;;;29.10;99.90;;;;;;5066829;28;20040;-72
2023/01/18 12:02:23;;;;;;;84.93;55.38;;;29.10;99.90;;;;;;5067399;28;20025;-69
2023/01/18 12:04:51;;;;;;;77.00;51.70;;;29.10;99.90;;;;;;5065453;28;20017;-71
2023/01/18 12:07:31;;;;;;;94.13;58.95;;;29.10;99.90;;;;;;5065461;28;20036;-69
2023/01/18 12:10:00;;;;;;;58.33;35.00;;;29.00;99.90;;;;;;5066636;28;20032;-69
2023/01/18 12:12:46;;;;;;;58.55;33.08;;;29.00;99.90;;;;;;5064399;28;20174;-69
2023/01/18 12:15:30;;;;;;;58.53;34.03;;;29.00;99.90;;;;;;5064712;28;20045;-70
2023/01/18 12:18:16;;;;;;;65.50;37.17;;;29.00;99.90;;;;;;5066194;28;20028;-71
2023/01/18 12:20:43;;;;;;;53.53;35.40;;;29.00;99.90;;;;;;5066957;28;20013;-71
2023/01/18 12:23:10;;;;;;;60.85;35.63;;;28.90;99.90;;;;;;5065338;28;20108;-70
2023/01/18 12:25:39;;;;;;;71.03;39.00;;;28.90;99.90;;;;;;5061875;28;20051;-72
2023/01/18 12:28:23;;;;;;;63.55;43.13;;;28.90;99.90;;;;;;5061933;28;20359;-71
2023/01/18 12:31:01;;;;;;;73.22;33.72;;;28.90;99.90;;;;;;5060607;28;20094;-70
2023/01/18 12:33:29;;;;;;;44.80;29.42;;;28.90;99.90;;;;;;5067150;28;20429;-71
2023/01/18 12:36:13;;;;;;;40.13;23.77;;;28.90;99.90;;;;;;5068452;28;20026;-71
2023/01/18 12:38:56;;;;;;;32.30;19.00;;;28.90;99.90;;;;;;5068629;28;20024;-71
2023/01/18 12:41:44;;;;;;;30.42;16.55;;;28.90;99.90;;;;;;5068192;28;20055;-70
2023/01/18 12:44:22;;;;;;;28.90;14.52;;;28.80;99.90;;;;;;5064972;28;20564;-70
2023/01/18 12:47:04;;;;;;;32.33;13.77;;;28.80;99.90;;;;;;5064720;28;20027;-70
2023/01/18 12:49:36;;;;;;;22.50;13.00;;;28.70;99.90;;;;;;5066117;28;20354;-69
2023/01/18 12:52:05;;;;;;;20.65;12.68;;;28.60;99.90;;;;;;5063754;28;20088;-70
2023/01/18 12:54:42;;;;;;;20.15;12.00;;;28.60;99.90;;;;;;5065257;28;20377;-72
2023/01/18 12:57:10;;;;;;;23.45;12.70;;;28.60;99.90;;;;;;5064434;28;20033;-72
2023/01/18 12:59:52;;;;;;;16.98;12.32;;;28.60;99.90;;;;;;5064668;28;20039;-71
2023/01/18 13:02:22;;;;;;;19.70;12.15;;;28.50;99.90;;;;;;5057591;28;20032;-72
2023/01/18 13:05:14;;;;;;;21.45;12.38;;;28.50;99.90;;;;;;5070827;28;20248;-73
2023/01/18 13:07:49;;;;;;;18.80;11.63;;;28.40;99.90;;;;;;5038821;28;20062;-70
2023/01/18 13:10:26;;;;;;;18.65;11.73;;;28.30;99.90;;;;;;5055745;28;20025;-69
2023/01/18 13:12:55;;;;;;;24.70;14.77;;;28.30;99.90;;;;;;5060969;28;20025;-70
2023/01/18 13:15:32;;;;;;;18.10;11.13;;;28.30;99.90;;;;;;5074011;28;20021;-70
2023/01/18 13:18:20;;;;;;;14.50;10.98;;;28.30;99.90;;;;;;5059318;28;20025;-70